createdAt,value
2022-12-03T00:01:39.705Z,94388.44
2022-12-03T00:04:06.042Z,94395.25
2022-12-03T00:06:34.644Z,94383.50
2022-12-03T00:09:01.210Z,94378.28
2022-12-03T00:11:27.450Z,94379.97
2022-12-03T00:13:53.688Z,94372.00
2022-12-03T00:16:20.016Z,94372.81
2022-12-03T00:18:46.345Z,94362.09
2022-12-03T00:21:12.605Z,94362.66
2022-12-03T00:23:42.282Z,94357.84
2022-12-03T00:26:08.821Z,94370.41
2022-12-03T00:28:35.083Z,94361.19
2022-12-03T00:31:01.416Z,94359.78
2022-12-03T00:33:27.738Z,94354.09
2022-12-03T00:35:53.990Z,94353.72
2022-12-03T00:38:20.253Z,94353.06
2022-12-03T00:40:46.502Z,94360.59
2022-12-03T00:43:12.789Z,94355.41
2022-12-03T00:45:39.031Z,94352.91
2022-12-03T00:48:05.270Z,94355.00
2022-12-03T00:50:31.530Z,94355.22
2022-12-03T00:52:57.791Z,94354.47
2022-12-03T00:55:24.035Z,94354.59
2022-12-03T00:57:50.309Z,94348.56
2022-12-03T01:00:16.558Z,94351.97
2022-12-03T01:02:42.799Z,94352.63
2022-12-03T01:05:09.144Z,94347.91
2022-12-03T01:07:35.592Z,94349.63
2022-12-03T01:10:01.897Z,94352.00
2022-12-03T01:12:28.142Z,94360.78
2022-12-03T01:14:54.637Z,94363.44
2022-12-03T01:17:21.057Z,94365.81
2022-12-03T01:19:48.525Z,94371.97
2022-12-03T01:22:15.050Z,94366.91
2022-12-03T01:24:41.350Z,94364.47
2022-12-03T01:27:07.597Z,94365.34
2022-12-03T01:29:33.856Z,94374.88
2022-12-03T01:32:00.135Z,94369.69
2022-12-03T01:34:26.402Z,94368.84
2022-12-03T01:36:52.660Z,94367.94
2022-12-03T01:39:18.930Z,94363.69
2022-12-03T01:41:45.183Z,94363.31
2022-12-03T01:44:11.422Z,94352.31
2022-12-03T01:46:37.762Z,94350.25
2022-12-03T01:49:04.057Z,94352.91
2022-12-03T01:51:30.321Z,94358.47
2022-12-03T01:53:56.567Z,94357.22
2022-12-03T01:56:22.822Z,94348.22
2022-12-03T01:58:49.092Z,94360.97
2022-12-03T02:01:15.387Z,94363.00
2022-12-03T02:03:41.725Z,94351.97
2022-12-03T02:06:08.029Z,94352.41
2022-12-03T02:08:34.270Z,94347.88
2022-12-03T02:11:01.182Z,94336.78
2022-12-03T02:13:27.506Z,94345.50
2022-12-03T02:15:53.845Z,94350.75
2022-12-03T02:18:20.131Z,94349.78
2022-12-03T02:20:46.397Z,94337.91
2022-12-03T02:23:12.638Z,94347.50
2022-12-03T02:25:38.922Z,94342.00
2022-12-03T02:28:05.181Z,94349.69
2022-12-03T02:30:31.422Z,94349.94
2022-12-03T02:32:57.686Z,94358.34
2022-12-03T02:35:23.932Z,94358.16
2022-12-03T02:37:50.170Z,94354.63
2022-12-03T02:40:16.437Z,94359.78
2022-12-03T02:42:42.708Z,94365.25
2022-12-03T02:45:08.950Z,94356.78
2022-12-03T02:47:35.220Z,94376.09
2022-12-03T02:50:01.506Z,94366.38
2022-12-03T02:52:27.779Z,94359.84
2022-12-03T02:54:54.206Z,94367.59
2022-12-03T02:57:20.613Z,94365.84
2022-12-03T02:59:46.858Z,94355.66
2022-12-03T03:02:13.174Z,94357.03
2022-12-03T03:04:39.462Z,94348.81
2022-12-03T03:07:05.708Z,94340.22
2022-12-03T03:09:31.947Z,94337.91
2022-12-03T03:11:58.215Z,94349.53
2022-12-03T03:14:24.463Z,94338.72
2022-12-03T03:16:50.809Z,94338.50
2022-12-03T03:19:17.125Z,94340.50
2022-12-03T03:21:43.365Z,94341.00
2022-12-03T03:24:09.617Z,94349.38
2022-12-03T03:26:35.870Z,94358.81
2022-12-03T03:29:02.127Z,94349.22
2022-12-03T03:31:28.482Z,94354.69
2022-12-03T03:33:54.770Z,94347.31
2022-12-03T03:36:21.014Z,94350.44
2022-12-03T03:38:47.263Z,94353.03
2022-12-03T03:41:13.519Z,94351.56
2022-12-03T03:43:39.799Z,94354.56
2022-12-03T03:46:06.079Z,94343.47
2022-12-03T03:48:32.420Z,94348.00
2022-12-03T03:50:58.681Z,94346.88
2022-12-03T03:53:24.933Z,94346.06
2022-12-03T03:55:51.192Z,94340.59
2022-12-03T03:58:17.434Z,94342.78
2022-12-03T04:00:43.734Z,94340.88
2022-12-03T04:03:10.057Z,94345.78
2022-12-03T04:05:36.320Z,94343.78
2022-12-03T04:08:02.657Z,94335.84
2022-12-03T04:10:28.988Z,94342.69
2022-12-03T04:12:55.253Z,94340.75
2022-12-03T04:15:21.527Z,94348.72
2022-12-03T04:17:47.809Z,94350.88
2022-12-03T04:20:14.054Z,94354.19
2022-12-03T04:22:40.309Z,94352.06
2022-12-03T04:25:06.563Z,94355.59
2022-12-03T04:27:32.824Z,94353.53
2022-12-03T04:29:59.187Z,94351.22
2022-12-03T04:32:25.457Z,94354.59
2022-12-03T04:34:52.197Z,94355.56
2022-12-03T04:37:18.823Z,94354.19
2022-12-03T04:39:45.085Z,94348.19
2022-12-03T04:42:11.363Z,94352.03
2022-12-03T04:44:37.637Z,94349.84
2022-12-03T04:47:03.897Z,94365.69
2022-12-03T04:49:30.168Z,94359.81
2022-12-03T04:51:56.411Z,94362.69
2022-12-03T04:54:22.651Z,94365.53
2022-12-03T04:56:48.898Z,94364.97
2022-12-03T04:59:16.565Z,94356.78
2022-12-03T05:01:43.140Z,94357.03
2022-12-03T05:04:09.429Z,94358.81
2022-12-03T05:06:35.676Z,94359.03
2022-12-03T05:09:01.989Z,94357.97
2022-12-03T05:11:28.264Z,94364.56
2022-12-03T05:13:54.521Z,94377.41
2022-12-03T05:16:20.850Z,94373.88
2022-12-03T05:18:47.125Z,94378.00
2022-12-03T05:21:13.385Z,94374.16
2022-12-03T05:23:39.669Z,94367.59
2022-12-03T05:26:05.934Z,94353.25
2022-12-03T05:28:32.193Z,94357.59
2022-12-03T05:30:58.491Z,94354.06
2022-12-03T05:33:24.813Z,94355.56
2022-12-03T05:35:51.118Z,94348.44
2022-12-03T05:38:17.386Z,94349.91
2022-12-03T05:40:43.641Z,94337.75
2022-12-03T05:43:09.882Z,94341.78
2022-12-03T05:45:36.163Z,94346.91
2022-12-03T05:48:02.432Z,94340.91
2022-12-03T05:50:28.686Z,94350.03
2022-12-03T05:52:54.929Z,94344.13
2022-12-03T05:55:21.189Z,94334.53
2022-12-03T05:57:47.439Z,94341.31
2022-12-03T06:00:13.700Z,94332.84
2022-12-03T06:02:40.030Z,94340.25
2022-12-03T06:05:06.377Z,94342.72
2022-12-03T06:07:32.674Z,94335.41
2022-12-03T06:09:58.977Z,94336.69
2022-12-03T06:12:25.230Z,94338.16
2022-12-03T06:14:51.814Z,94340.91
2022-12-03T06:17:18.362Z,94331.03
2022-12-03T06:19:44.623Z,94332.00
2022-12-03T06:22:10.881Z,94336.56
2022-12-03T06:24:37.167Z,94332.69
2022-12-03T06:27:03.464Z,94329.53
2022-12-03T06:29:29.727Z,94336.50
2022-12-03T06:31:55.985Z,94341.19
2022-12-03T06:34:22.367Z,94334.38
2022-12-03T06:36:48.641Z,94342.75
2022-12-03T06:39:14.929Z,94340.25
2022-12-03T06:41:41.207Z,94340.22
2022-12-03T06:44:07.450Z,94345.44
2022-12-03T06:46:33.775Z,94343.78
2022-12-03T06:49:00.086Z,94341.19
2022-12-03T06:51:26.329Z,94346.94
2022-12-03T06:53:52.591Z,94361.03
2022-12-03T06:56:22.052Z,94364.00
2022-12-03T06:58:48.843Z,94351.19
2022-12-03T07:01:15.127Z,94359.66
2022-12-03T07:03:41.471Z,94361.03
2022-12-03T07:06:07.718Z,94359.28
2022-12-03T07:08:33.993Z,94372.13
2022-12-03T07:11:00.240Z,94370.19
2022-12-03T07:13:26.486Z,94376.88
2022-12-03T07:15:52.775Z,94369.19
2022-12-03T07:18:19.100Z,94366.34
2022-12-03T07:20:45.359Z,94360.44
2022-12-03T07:23:11.616Z,94357.94
2022-12-03T07:25:37.873Z,94363.63
2022-12-03T07:28:19.207Z,94371.44
2022-12-03T07:30:45.447Z,94369.63
2022-12-03T07:33:11.724Z,94367.69
2022-12-03T07:35:37.966Z,94363.03
2022-12-03T07:38:04.225Z,94358.94
2022-12-03T07:40:30.493Z,94354.69
2022-12-03T07:42:56.747Z,94359.88
2022-12-03T07:45:22.990Z,94350.78
2022-12-03T07:47:49.257Z,94353.38
2022-12-03T07:50:15.519Z,94353.50
2022-12-03T07:52:41.790Z,94355.13
2022-12-03T07:55:08.035Z,94346.06
2022-12-03T07:57:34.281Z,94355.78
2022-12-03T08:00:00.536Z,94355.34
2022-12-03T08:02:26.825Z,94348.91
2022-12-03T08:04:53.323Z,94340.16
2022-12-03T08:07:19.780Z,94341.25
2022-12-03T08:09:46.021Z,94339.22
2022-12-03T08:12:12.277Z,94334.81
2022-12-03T08:14:38.542Z,94339.75
2022-12-03T08:17:04.802Z,94343.41
2022-12-03T08:19:31.077Z,94330.03
2022-12-03T08:22:01.207Z,94328.78
2022-12-03T08:24:27.898Z,94329.75
2022-12-03T08:26:54.157Z,94322.25
2022-12-03T08:29:20.429Z,94321.44
2022-12-03T08:31:46.712Z,94323.47
2022-12-03T08:34:13.022Z,94313.53
2022-12-03T08:36:39.284Z,94313.22
2022-12-03T08:39:05.527Z,94318.22
2022-12-03T08:41:31.771Z,94316.66
2022-12-03T08:43:58.025Z,94320.84
2022-12-03T08:46:24.332Z,94318.22
2022-12-03T08:48:50.663Z,94322.88
2022-12-03T08:51:16.921Z,94315.47
2022-12-03T08:53:43.172Z,94316.03
2022-12-03T08:56:09.437Z,94308.84
2022-12-03T08:58:35.677Z,94323.31
2022-12-03T09:01:02.012Z,94317.50
2022-12-03T09:03:28.285Z,94326.38
2022-12-03T09:05:54.530Z,94320.81
2022-12-03T09:08:20.827Z,94318.88
2022-12-03T09:10:47.121Z,94305.41
2022-12-03T09:13:13.371Z,94304.59
2022-12-03T09:15:39.620Z,94314.03
2022-12-03T09:18:05.861Z,94320.66
2022-12-03T09:20:32.106Z,94322.25
2022-12-03T09:22:58.352Z,94327.16
2022-12-03T09:25:24.606Z,94315.09
2022-12-03T09:27:50.895Z,94319.69
2022-12-03T09:30:17.150Z,94318.94
2022-12-03T09:32:43.400Z,94328.09
2022-12-03T09:35:09.670Z,94320.31
2022-12-03T09:37:35.937Z,94322.78
2022-12-03T09:40:02.224Z,94321.13
2022-12-03T09:42:28.482Z,94321.44
2022-12-03T09:44:55.064Z,94319.22
2022-12-03T09:47:21.669Z,94309.47
2022-12-03T09:49:47.909Z,94308.00
2022-12-03T09:52:14.163Z,94313.41
2022-12-03T09:54:45.561Z,94305.63
2022-12-03T09:57:13.449Z,94308.59
2022-12-03T09:59:39.693Z,94311.50
2022-12-03T10:02:06.006Z,94311.44
2022-12-03T10:04:32.366Z,94309.75
2022-12-03T10:06:58.638Z,94295.59
2022-12-03T10:09:24.898Z,94297.38
2022-12-03T10:11:51.163Z,94300.38
2022-12-03T10:14:17.426Z,94299.97
2022-12-03T10:16:43.782Z,94302.97
2022-12-03T10:19:10.128Z,94306.25
2022-12-03T10:21:36.369Z,94310.69
2022-12-03T10:24:02.640Z,94297.47
2022-12-03T10:26:28.904Z,94301.56
2022-12-03T10:28:55.142Z,94309.66
2022-12-03T10:31:21.423Z,94296.88
2022-12-03T10:33:47.739Z,94304.97
2022-12-03T10:36:14.003Z,94303.50
2022-12-03T10:38:40.273Z,94296.41
2022-12-03T10:41:06.513Z,94295.09
2022-12-03T10:43:32.755Z,94296.03
2022-12-03T10:46:03.524Z,94295.69
2022-12-03T10:48:30.587Z,94286.16
2022-12-03T10:50:56.841Z,94272.66
2022-12-03T10:53:23.088Z,94269.16
2022-12-03T10:55:49.336Z,94270.03
2022-12-03T10:58:15.582Z,94268.75
2022-12-03T11:00:41.850Z,94257.38
2022-12-03T11:03:08.119Z,94257.44
2022-12-03T11:05:34.387Z,94249.06
2022-12-03T11:08:00.690Z,94245.66
2022-12-03T11:10:26.974Z,94246.41
2022-12-03T11:12:53.222Z,94247.53
2022-12-03T11:15:19.479Z,94258.75
2022-12-03T11:17:45.747Z,94262.50
2022-12-03T11:20:11.991Z,94247.78
2022-12-03T11:22:38.262Z,94248.31
2022-12-03T11:25:04.506Z,94237.75
2022-12-03T11:27:30.811Z,94237.53
2022-12-03T11:29:57.080Z,94240.88
2022-12-03T11:32:25.942Z,94238.81
2022-12-03T11:34:55.715Z,94249.56
2022-12-03T11:37:22.080Z,94250.78
2022-12-03T11:39:48.346Z,94248.25
2022-12-03T11:42:14.595Z,94237.84
2022-12-03T11:44:40.840Z,94233.22
2022-12-03T11:47:07.139Z,94231.28
2022-12-03T11:49:33.427Z,94233.03
2022-12-03T11:51:59.664Z,94239.91
2022-12-03T11:54:25.916Z,94243.84
2022-12-03T11:56:52.177Z,94234.50
2022-12-03T11:59:18.422Z,94229.97
2022-12-03T12:01:44.687Z,94232.84
2022-12-03T12:04:11.005Z,94227.13
2022-12-03T12:06:37.301Z,94226.16
2022-12-03T12:09:03.574Z,94234.69
2022-12-03T12:11:29.827Z,94233.13
2022-12-03T12:13:56.067Z,94228.47
2022-12-03T12:16:22.350Z,94229.88
2022-12-03T12:18:53.737Z,94237.09
2022-12-03T12:21:21.229Z,94232.25
2022-12-03T12:23:47.595Z,94220.88
2022-12-03T12:26:13.891Z,94230.47
2022-12-03T12:28:40.157Z,94224.00
2022-12-03T12:31:06.427Z,94216.78
2022-12-03T12:33:32.703Z,94222.44
2022-12-03T12:35:58.976Z,94221.84
2022-12-03T12:38:25.241Z,94216.41
2022-12-03T12:40:51.509Z,94219.91
2022-12-03T12:43:23.337Z,94212.47
2022-12-03T12:45:50.205Z,94205.31
2022-12-03T12:48:16.447Z,94212.53
2022-12-03T12:50:42.712Z,94207.19
2022-12-03T12:53:08.966Z,94203.47
2022-12-03T12:55:35.235Z,94210.97
2022-12-03T12:58:01.493Z,94195.66
2022-12-03T13:00:27.801Z,94197.16
2022-12-03T13:02:54.255Z,94193.06
2022-12-03T13:05:20.562Z,94187.56
2022-12-03T13:07:46.826Z,94187.72
2022-12-03T13:10:13.116Z,94178.84
2022-12-03T13:12:39.364Z,94184.72
2022-12-03T13:15:05.611Z,94177.88
2022-12-03T13:17:31.857Z,94173.94
2022-12-03T13:20:05.417Z,94160.28
2022-12-03T13:22:33.242Z,94177.03
2022-12-03T13:24:59.493Z,94165.00
2022-12-03T13:27:25.753Z,94164.69
2022-12-03T13:29:52.430Z,94171.56
2022-12-03T13:32:18.979Z,94178.00
2022-12-03T13:34:45.220Z,94167.09
2022-12-03T13:37:11.469Z,94164.19
2022-12-03T13:39:37.730Z,94177.09
2022-12-03T13:42:03.992Z,94168.25
2022-12-03T13:44:30.253Z,94160.38
2022-12-03T13:46:56.524Z,94167.59
2022-12-03T13:49:22.774Z,94173.81
2022-12-03T13:51:49.045Z,94168.66
2022-12-03T13:54:16.219Z,94164.06
2022-12-03T13:56:42.570Z,94158.38
2022-12-03T13:59:08.822Z,94160.69
2022-12-03T14:01:35.146Z,94167.53
2022-12-03T14:04:01.471Z,94171.78
2022-12-03T14:06:27.736Z,94173.13
2022-12-03T14:08:53.994Z,94175.03
2022-12-03T14:11:20.238Z,94176.38
2022-12-03T14:13:46.478Z,94169.38
2022-12-03T14:16:12.821Z,94159.84
2022-12-03T14:18:39.117Z,94165.22
2022-12-03T14:21:05.362Z,94167.66
2022-12-03T14:23:31.621Z,94157.34
2022-12-03T14:25:57.857Z,94163.91
2022-12-03T14:28:24.098Z,94176.59
2022-12-03T14:30:50.363Z,94175.47
2022-12-03T14:33:16.612Z,94171.50
2022-12-03T14:35:42.873Z,94174.13
2022-12-03T14:38:09.116Z,94166.03
2022-12-03T14:40:35.366Z,94159.03
2022-12-03T14:43:01.607Z,94175.25
2022-12-03T14:45:27.909Z,94177.78
2022-12-03T14:47:54.201Z,94172.44
2022-12-03T14:50:20.443Z,94171.50
2022-12-03T14:52:46.691Z,94164.34
2022-12-03T14:55:12.957Z,94164.94
2022-12-03T14:57:39.247Z,94158.16
2022-12-03T15:00:05.526Z,94156.47
2022-12-03T15:02:31.851Z,94156.31
2022-12-03T15:04:58.151Z,94156.09
2022-12-03T15:07:24.426Z,94158.53
2022-12-03T15:09:50.696Z,94143.66
2022-12-03T15:12:16.939Z,94141.56
2022-12-03T15:14:43.216Z,94140.69
2022-12-03T15:17:09.538Z,94143.88
2022-12-03T15:19:35.812Z,94138.25
2022-12-03T15:22:02.073Z,94141.44
2022-12-03T15:24:28.337Z,94142.69
2022-12-03T15:26:54.592Z,94135.25
2022-12-03T15:29:20.855Z,94135.25
2022-12-03T15:31:47.172Z,94137.09
2022-12-03T15:34:18.771Z,94139.75
2022-12-03T15:36:48.265Z,94138.06
2022-12-03T15:39:14.525Z,94135.53
2022-12-03T15:41:40.790Z,94132.28
2022-12-03T15:44:07.047Z,94137.00
2022-12-03T15:46:33.304Z,94144.47
2022-12-03T15:48:59.564Z,94139.75
2022-12-03T15:51:25.830Z,94141.75
2022-12-03T15:53:52.077Z,94134.63
2022-12-03T15:56:18.341Z,94143.41
2022-12-03T15:58:44.593Z,94148.81
2022-12-03T16:01:10.889Z,94138.88
2022-12-03T16:03:37.239Z,94141.41
2022-12-03T16:06:03.536Z,94134.75
2022-12-03T16:08:29.802Z,94139.41
2022-12-03T16:10:56.069Z,94142.22
2022-12-03T16:13:22.321Z,94138.34
2022-12-03T16:15:48.645Z,94141.69
2022-12-03T16:18:14.901Z,94142.38
2022-12-03T16:20:41.158Z,94139.97
2022-12-03T16:23:07.402Z,94149.66
2022-12-03T16:25:33.649Z,94150.84
2022-12-03T16:27:59.935Z,94153.44
2022-12-03T16:30:26.183Z,94153.03
2022-12-03T16:32:52.423Z,94145.03
2022-12-03T16:35:18.700Z,94140.81
2022-12-03T16:37:44.975Z,94147.78
2022-12-03T16:40:11.215Z,94146.97
2022-12-03T16:42:37.458Z,94146.38
2022-12-03T16:45:03.713Z,94144.00
2022-12-03T16:47:33.908Z,94148.00
2022-12-03T16:50:00.807Z,94149.97
2022-12-03T16:52:27.122Z,94143.94
2022-12-03T16:54:53.365Z,94143.63
2022-12-03T16:57:19.634Z,94145.09
2022-12-03T16:59:45.887Z,94135.81
2022-12-03T17:02:12.187Z,94134.94
2022-12-03T17:04:38.503Z,94133.16
2022-12-03T17:07:04.758Z,94126.47
2022-12-03T17:09:31.011Z,94138.44
2022-12-03T17:11:57.252Z,94137.84
2022-12-03T17:14:26.232Z,94135.53
2022-12-03T17:16:54.801Z,94135.53
2022-12-03T17:19:21.048Z,94131.06
2022-12-03T17:21:47.302Z,94130.94
2022-12-03T17:24:13.565Z,94131.00
2022-12-03T17:26:39.815Z,94130.63
2022-12-03T17:29:06.067Z,94125.25
2022-12-03T17:31:36.992Z,94122.16
2022-12-03T17:34:06.469Z,94116.19
2022-12-03T17:36:32.726Z,94116.34
2022-12-03T17:38:58.998Z,94114.19
2022-12-03T17:41:25.278Z,94114.34
2022-12-03T17:43:51.541Z,94116.78
2022-12-03T17:46:17.867Z,94125.72
2022-12-03T17:48:44.151Z,94121.25
2022-12-03T17:51:10.395Z,94124.34
2022-12-03T17:53:36.636Z,94118.34
2022-12-03T17:56:02.905Z,94122.72
2022-12-03T17:58:29.158Z,94124.34
2022-12-03T18:01:00.466Z,94125.69
2022-12-03T18:03:28.920Z,94116.56
2022-12-03T18:05:55.173Z,94123.41
2022-12-03T18:08:21.459Z,94129.06
2022-12-03T18:10:47.784Z,94130.47
2022-12-03T18:13:14.055Z,94128.47
2022-12-03T18:15:40.353Z,94129.72
2022-12-03T18:18:06.611Z,94135.47
2022-12-03T18:20:32.863Z,94127.34
2022-12-03T18:22:59.108Z,94127.44
2022-12-03T18:25:25.342Z,94132.31
2022-12-03T18:27:51.600Z,94133.06
2022-12-03T18:30:17.857Z,94124.22
2022-12-03T18:32:44.121Z,94132.25
2022-12-03T18:35:10.366Z,94132.78
2022-12-03T18:37:36.608Z,94126.06
2022-12-03T18:40:12.143Z,94130.19
2022-12-03T18:42:39.198Z,94126.28
2022-12-03T18:45:05.548Z,94116.16
2022-12-03T18:47:31.896Z,94115.94
2022-12-03T18:49:58.371Z,94115.34
2022-12-03T18:52:24.819Z,94126.13
2022-12-03T18:54:51.093Z,94121.97
2022-12-03T18:57:17.343Z,94120.34
2022-12-03T18:59:43.606Z,94121.47
2022-12-03T19:02:09.945Z,94130.00
2022-12-03T19:04:36.230Z,94125.44
2022-12-03T19:07:02.526Z,94124.34
2022-12-03T19:09:28.787Z,94118.16
2022-12-03T19:11:55.049Z,94133.06
2022-12-03T19:14:21.304Z,94122.50
2022-12-03T19:16:47.594Z,94125.19
2022-12-03T19:19:13.865Z,94111.78
2022-12-03T19:21:40.130Z,94112.44
2022-12-03T19:26:52.625Z,94109.94
2022-12-03T19:29:18.891Z,94115.28
2022-12-03T19:31:45.179Z,94112.69
2022-12-03T19:34:11.450Z,94111.34
2022-12-03T19:36:37.705Z,94117.28
2022-12-03T19:39:03.950Z,94115.56
2022-12-03T19:41:30.219Z,94121.38
2022-12-03T19:43:56.499Z,94124.63
2022-12-03T19:46:22.790Z,94116.66
2022-12-03T19:48:49.118Z,94112.38
2022-12-03T19:51:33.488Z,94110.97
2022-12-03T19:54:00.201Z,94123.16
2022-12-03T19:56:26.464Z,94121.16
2022-12-03T19:58:52.716Z,94131.13
2022-12-03T20:01:19.029Z,94123.59
2022-12-03T20:03:45.349Z,94123.53
2022-12-03T20:06:11.610Z,94109.28
2022-12-03T20:08:37.883Z,94101.97
2022-12-03T20:11:04.139Z,94109.34
2022-12-03T20:13:34.981Z,94101.22
2022-12-03T20:16:02.818Z,94107.84
2022-12-03T20:18:29.159Z,94111.06
2022-12-03T20:20:55.516Z,94098.75
2022-12-03T20:23:21.758Z,94107.53
2022-12-03T20:25:48.015Z,94101.75
2022-12-03T20:28:14.275Z,94103.88
2022-12-03T20:30:40.519Z,94109.06
2022-12-03T20:33:06.763Z,94110.22
2022-12-03T20:35:33.024Z,94113.78
2022-12-03T20:37:59.271Z,94109.22
2022-12-03T20:40:25.517Z,94089.88
2022-12-03T20:42:51.777Z,94093.25
2022-12-03T20:45:18.046Z,94095.91
2022-12-03T20:47:44.286Z,94109.00
2022-12-03T20:50:10.546Z,94103.66
2022-12-03T20:52:36.787Z,94102.56
2022-12-03T20:55:03.069Z,94108.47
2022-12-03T20:57:29.332Z,94100.88
2022-12-03T20:59:55.963Z,94103.22
2022-12-03T21:02:22.456Z,94095.78
2022-12-03T21:04:48.747Z,94102.13
2022-12-03T21:07:15.014Z,94121.53
2022-12-03T21:09:41.290Z,94126.06
2022-12-03T21:12:07.537Z,94128.38
2022-12-03T21:14:33.800Z,94120.78
2022-12-03T21:17:08.385Z,94114.53
2022-12-03T21:19:35.269Z,94120.72
2022-12-03T21:22:01.525Z,94131.41
2022-12-03T21:24:27.785Z,94134.81
2022-12-03T21:26:54.030Z,94129.34
2022-12-03T21:29:20.272Z,94120.63
2022-12-03T21:31:46.540Z,94133.41
2022-12-03T21:34:12.789Z,94137.38
2022-12-03T21:36:39.070Z,94147.47
2022-12-03T21:39:05.329Z,94135.56
2022-12-03T21:41:31.578Z,94144.19
2022-12-03T21:43:57.822Z,94142.91
2022-12-03T21:47:09.672Z,94145.19
2022-12-03T21:49:10.283Z,94148.44
2022-12-03T21:51:36.538Z,94148.13
2022-12-03T21:54:02.802Z,94151.41
2022-12-03T21:56:29.051Z,94161.66
2022-12-03T21:58:55.320Z,94160.97
2022-12-03T22:01:21.768Z,94161.81
2022-12-03T22:03:48.059Z,94161.34
2022-12-03T22:06:14.324Z,94157.94
2022-12-03T22:08:40.588Z,94154.84
2022-12-03T22:11:06.845Z,94150.72
2022-12-03T22:13:33.090Z,94157.44
2022-12-03T22:15:59.417Z,94159.28
2022-12-03T22:18:25.756Z,94160.38
2022-12-03T22:20:52.002Z,94154.84
2022-12-03T22:23:18.267Z,94150.06
2022-12-03T22:25:44.533Z,94141.50
2022-12-03T22:28:10.777Z,94143.59
2022-12-03T22:30:37.237Z,94131.41
2022-12-03T22:33:03.529Z,94130.72
2022-12-03T22:35:29.791Z,94126.19
2022-12-03T22:37:56.037Z,94137.88
2022-12-03T22:40:22.275Z,94127.13
2022-12-03T22:42:51.119Z,94117.81
2022-12-03T22:45:17.553Z,94111.72
2022-12-03T22:47:43.826Z,94096.63
2022-12-03T22:50:10.087Z,94099.78
2022-12-03T22:52:36.356Z,94102.56
2022-12-03T22:55:02.597Z,94085.53
2022-12-03T22:57:28.841Z,94077.00
2022-12-03T22:59:55.308Z,94064.19
2022-12-03T23:02:21.799Z,94076.72
2022-12-03T23:04:48.050Z,94084.31
2022-12-03T23:07:14.301Z,94074.50
2022-12-03T23:09:40.562Z,94066.09
2022-12-03T23:12:06.818Z,94073.09
2022-12-03T23:14:33.096Z,94067.88
2022-12-03T23:16:59.370Z,94075.50
2022-12-03T23:19:25.614Z,94067.72
2022-12-03T23:21:51.884Z,94084.47
2022-12-03T23:24:18.122Z,94089.81
2022-12-03T23:26:44.371Z,94083.97
2022-12-03T23:29:10.633Z,94089.81
2022-12-03T23:31:37.003Z,94091.53
2022-12-03T23:34:03.375Z,94087.66
2022-12-03T23:36:29.741Z,94094.38
2022-12-03T23:38:56.026Z,94093.41
2022-12-03T23:41:22.282Z,94097.66
2022-12-03T23:43:48.534Z,94102.81
2022-12-03T23:46:14.876Z,94090.25
2022-12-03T23:48:41.247Z,94091.44
2022-12-03T23:51:07.510Z,94093.56
2022-12-03T23:53:33.763Z,94095.13
2022-12-03T23:56:00.007Z,94083.63
2022-12-03T23:58:26.282Z,94090.91
